BIKF/KEF METAR and TAF weather

Enter ICAO airport designator
Station Type Date Time Source
BIKF METAR 2018/12/13 15:30 UTC NOAA

BIKF 131530Z 10021KT 7000 -DZRA BKN012 BKN022 OVC035 08/07 Q0986


Station Type Date Time Source
BIKF Decoded METAR 2018/12/13 15:30 UTC NOAA

Keflavikurflugvollur, Iceland (BIKF) 63-58N 022-36W 54M
Dec 13, 2018 - 10:30 AM EST / 2018.12.13 1530 UTC
Wind: from the E (100 degrees) at 24 MPH (21 KT):0
Visibility: 4 mile(s):0
Sky conditions: overcast
Weather: light drizzle, rain
Temperature: 46 F (8 C)
Dew Point: 44 F (7 C)
Relative Humidity: 93%
Pressure (altimeter): 29.12 in. Hg (0986 hPa)
ob: BIKF 131530Z 10021KT 7000 -DZRA BKN012 BKN022 OVC035 08/07 Q0986
cycle: 15

Station Type Date Time Source
BIKF TAF 2018/12/13 15:03 UTC NOAA

TAF BIKF 131400Z 1315/1415 12027G37KT 9999 -RA BKN014 OVC020 TX08/1315Z TN03/1408Z
TEMPO 1315/1400 3000 RADZ BR OVC008
BECMG 1317/1320 12016KT
BECMG 1322/1401 25015G25KT
BECMG 1403/1406 18012KT NSW FEW022 BKN032
BECMG 1409/1412 09015KT


Example: see airport list